createdAt,value
2022-11-20T00:05:21.956Z,79.6
2022-11-20T00:20:34.939Z,79.4
2022-11-20T00:35:44.341Z,79.6
2022-11-20T00:50:53.840Z,79.5
2022-11-20T01:06:02.940Z,79.3
2022-11-20T01:21:11.891Z,79.6
2022-11-20T01:36:20.799Z,79.7
2022-11-20T01:51:29.470Z,80.1
2022-11-20T02:06:38.725Z,79.7
2022-11-20T02:21:48.500Z,79.7
2022-11-20T02:36:57.911Z,79.2
2022-11-20T02:52:06.806Z,79.8
2022-11-20T03:07:16.519Z,79.7
2022-11-20T03:22:25.918Z,79.6
2022-11-20T03:37:35.196Z,79.4
2022-11-20T03:52:44.361Z,79.3
2022-11-20T04:07:53.686Z,79.2
2022-11-20T04:23:03.342Z,79.2
2022-11-20T04:38:12.771Z,79.2
2022-11-20T04:53:22.044Z,79.2
2022-11-20T05:08:31.210Z,78.8
2022-11-20T05:23:40.812Z,79.3
2022-11-20T05:39:01.871Z,79.2
2022-11-20T05:54:12.599Z,79.1
2022-11-20T06:09:23.520Z,79.2
2022-11-20T06:24:32.986Z,79.1
2022-11-20T06:39:42.354Z,79
2022-11-20T06:54:51.574Z,78.9
2022-11-20T07:10:01.263Z,78.7
2022-11-20T07:25:10.792Z,79
2022-11-20T07:40:20.017Z,78.9
2022-11-20T07:55:30.253Z,78.8
2022-11-20T08:10:39.733Z,78.9
2022-11-20T08:25:48.710Z,78.8
2022-11-20T08:41:02.406Z,78.5
2022-11-20T08:56:11.662Z,78.5
2022-11-20T09:11:21.170Z,78.3
2022-11-20T09:26:30.624Z,78.1
2022-11-20T09:41:39.687Z,78
2022-11-20T09:56:49.220Z,77.7
2022-11-20T10:11:58.497Z,77.5
2022-11-20T10:27:07.640Z,77.8
2022-11-20T10:42:17.111Z,77.8
2022-11-20T10:57:26.353Z,77.8
2022-11-20T11:12:35.216Z,77.8
2022-11-20T11:27:45.083Z,77.6
2022-11-20T11:42:54.560Z,77.7
2022-11-20T11:58:04.251Z,77.6
2022-11-20T12:13:13.409Z,77.5
2022-11-20T12:28:23.446Z,77.3
2022-11-20T12:43:32.725Z,77.1
2022-11-20T12:58:42.074Z,77.2
2022-11-20T13:13:53.974Z,77.4
2022-11-20T13:29:03.196Z,76.9
2022-11-20T13:44:12.991Z,76.9
2022-11-20T13:59:22.068Z,77.1
2022-11-20T14:14:32.115Z,77.7
2022-11-20T14:29:41.393Z,77.7
2022-11-20T14:44:51.021Z,77.7
2022-11-20T15:00:00.479Z,77.8
2022-11-20T15:15:09.592Z,78
2022-11-20T15:30:18.986Z,78
2022-11-20T15:45:28.646Z,78
2022-11-20T16:00:38.230Z,78.6
2022-11-20T16:15:47.573Z,78.4
2022-11-20T16:30:56.936Z,78.6
2022-11-20T16:46:06.202Z,78.7
2022-11-20T17:01:15.779Z,78.8
2022-11-20T17:16:25.107Z,78.8
2022-11-20T17:31:34.262Z,78.9
2022-11-20T17:46:43.134Z,78.9
2022-11-20T18:01:52.802Z,78.9
2022-11-20T18:17:03.877Z,79.2
2022-11-20T18:32:13.311Z,78.9
2022-11-20T18:47:22.623Z,79
2022-11-20T19:02:43.759Z,78.9
2022-11-20T19:17:53.211Z,78.9
2022-11-20T19:33:03.400Z,78.9
2022-11-20T19:48:13.710Z,78.8
2022-11-20T20:03:23.086Z,78.7
2022-11-20T20:18:32.521Z,78.7
2022-11-20T20:33:42.279Z,78.8
2022-11-20T20:48:55.431Z,78.9
2022-11-20T21:04:04.607Z,78.9
2022-11-20T21:19:13.981Z,78.9
2022-11-20T21:34:25.204Z,78.9
2022-11-20T21:49:34.609Z,79
2022-11-20T22:04:43.889Z,79.1
2022-11-20T22:19:53.564Z,79.2
2022-11-20T22:35:03.581Z,79.2
2022-11-20T22:50:12.746Z,79.3
2022-11-20T23:05:21.934Z,79.3
2022-11-20T23:20:31.444Z,79.3
2022-11-20T23:35:40.760Z,79.3
2022-11-20T23:50:49.813Z,79.2
